Time;durP1;ratioP1;P1;durP2;ratioP2;P2;SDS_P1;SDS_P2;PMS_P1;PMS_P2;Temp;Humidity;BMP_temperature;BMP_pressure;BME280_temperature;BME280_humidity;BME280_pressure;Samples;Min_cycle;Max_cycle;Signal;HPM_P1;HPM_P2
2023/08/23 00:01:48;;;;;;;0.03;0.03;;;14.10;99.90;;;;;;5120574;27;20031;-66
2023/08/23 00:04:13;;;;;;;0.00;0.00;;;14.10;99.90;;;;;;5127765;27;20028;-66
2023/08/23 00:06:39;;;;;;;0.00;0.00;;;14.00;99.90;;;;;;5098898;27;20039;-66
2023/08/23 00:09:05;;;;;;;0.10;0.10;;;14.00;99.90;;;;;;5091711;28;20040;-66
2023/08/23 00:11:31;;;;;;;0.10;0.00;;;14.00;99.90;;;;;;5098187;27;20047;-66
2023/08/23 00:13:57;;;;;;;0.00;0.00;;;14.00;99.90;;;;;;5092621;28;20032;-66
2023/08/23 00:16:23;;;;;;;0.00;0.00;;;14.00;99.90;;;;;;5097558;27;20050;-66
2023/08/23 00:18:50;;;;;;;0.17;0.17;;;14.10;99.90;;;;;;5094796;28;20035;-67
2023/08/23 00:21:15;;;;;;;0.20;0.17;;;14.00;99.90;;;;;;5099912;27;20043;-66
2023/08/23 00:23:41;;;;;;;0.10;0.10;;;14.00;99.90;;;;;;5095724;28;20039;-66
2023/08/23 00:26:07;;;;;;;0.10;0.10;;;14.00;99.90;;;;;;5099893;27;20911;-66
2023/08/23 00:28:33;;;;;;;0.00;0.00;;;14.00;99.90;;;;;;5100364;27;20047;-66
2023/08/23 00:30:58;;;;;;;0.10;0.10;;;14.00;99.90;;;;;;5103467;27;20039;-66
2023/08/23 00:33:24;;;;;;;0.40;0.40;;;14.00;99.90;;;;;;5098100;27;20045;-67
2023/08/23 00:35:50;;;;;;;1.70;0.95;;;14.00;99.90;;;;;;5102449;28;20546;-66
2023/08/23 00:38:15;;;;;;;0.00;0.00;;;14.10;99.90;;;;;;5099472;28;20138;-67
2023/08/23 00:40:41;;;;;;;0.00;0.00;;;14.10;99.90;;;;;;5121314;28;20023;-66
2023/08/23 00:43:07;;;;;;;1.05;0.10;;;14.10;99.90;;;;;;5088663;28;20035;-66
2023/08/23 00:45:38;;;;;;;0.00;0.00;;;14.10;99.90;;;;;;5100674;28;20184;-66
2023/08/23 00:48:05;;;;;;;0.00;0.00;;;14.10;99.90;;;;;;5130636;27;20040;-66
2023/08/23 00:50:34;;;;;;;0.10;0.10;;;14.10;99.90;;;;;;5097313;28;20051;-66
2023/08/23 00:53:01;;;;;;;0.15;0.15;;;14.00;99.90;;;;;;5095729;28;20406;-66
2023/08/23 00:55:27;;;;;;;0.00;0.00;;;13.90;99.90;;;;;;5098769;28;20043;-66
2023/08/23 00:57:53;;;;;;;0.68;0.68;;;13.90;99.90;;;;;;5101680;28;20489;-66
2023/08/23 01:00:19;;;;;;;0.20;0.20;;;13.90;99.90;;;;;;5097939;28;20039;-67
2023/08/23 01:02:45;;;;;;;1.17;0.17;;;13.90;99.90;;;;;;5122646;28;20782;-67
2023/08/23 01:05:11;;;;;;;0.10;0.10;;;13.90;99.90;;;;;;5128952;27;20047;-67
2023/08/23 01:07:50;;;;;;;0.28;0.20;;;13.80;99.90;;;;;;5094030;28;20050;-67
2023/08/23 01:10:43;;;;;;;0.22;0.22;;;13.90;99.90;;;;;;5081643;28;20059;-67
2023/08/23 01:13:17;;;;;;;0.10;0.10;;;13.80;99.90;;;;;;5094399;28;20039;-67
2023/08/23 01:15:44;;;;;;;0.40;0.40;;;13.90;99.90;;;;;;5098665;28;20830;-67
2023/08/23 01:18:10;;;;;;;0.85;0.60;;;13.80;99.90;;;;;;5097089;28;20058;-67
2023/08/23 01:20:37;;;;;;;1.33;0.63;;;13.80;99.90;;;;;;5138856;27;20713;-67
2023/08/23 01:23:13;;;;;;;0.10;0.10;;;13.80;99.90;;;;;;5106590;27;21847;-67
2023/08/23 01:25:57;;;;;;;1.45;0.17;;;13.70;99.90;;;;;;5101286;27;20036;-67
2023/08/23 01:28:22;;;;;;;1.38;0.20;;;13.70;99.90;;;;;;5119985;27;20427;-67
2023/08/23 01:30:50;;;;;;;0.08;0.08;;;13.60;99.90;;;;;;5102433;27;20031;-67
2023/08/23 01:33:28;;;;;;;0.15;0.10;;;13.60;99.90;;;;;;5104478;27;20673;-67
2023/08/23 01:35:57;;;;;;;0.00;0.00;;;13.50;99.90;;;;;;5101969;27;20367;-67
2023/08/23 01:38:24;;;;;;;0.20;0.20;;;13.50;99.90;;;;;;5117688;27;20458;-67
2023/08/23 01:40:51;;;;;;;3.22;3.03;;;13.50;99.90;;;;;;5104598;27;20047;-67
2023/08/23 01:43:17;;;;;;;0.10;0.10;;;13.50;99.90;;;;;;5101670;27;20055;-67
2023/08/23 01:45:43;;;;;;;1.55;0.98;;;13.50;99.90;;;;;;5098292;27;20055;-67
2023/08/23 01:48:08;;;;;;;0.70;0.47;;;13.50;99.90;;;;;;5103435;27;20043;-67
2023/08/23 01:50:34;;;;;;;0.43;0.40;;;13.60;99.90;;;;;;5100303;27;20518;-68
2023/08/23 01:53:00;;;;;;;0.20;0.20;;;13.60;99.90;;;;;;5098247;27;20047;-67
2023/08/23 01:55:25;;;;;;;0.13;0.13;;;13.60;99.90;;;;;;5117920;27;20027;-67
2023/08/23 01:57:51;;;;;;;0.00;0.00;;;13.60;99.90;;;;;;5102174;27;20038;-67
2023/08/23 02:00:17;;;;;;;0.10;0.10;;;13.50;99.90;;;;;;5108160;27;20142;-67
2023/08/23 02:02:42;;;;;;;0.38;0.20;;;13.60;99.90;;;;;;5128173;27;20054;-67
2023/08/23 02:05:08;;;;;;;0.10;0.10;;;13.60;99.90;;;;;;5103786;27;20075;-68
2023/08/23 02:07:34;;;;;;;0.30;0.30;;;13.50;99.90;;;;;;5099543;27;20039;-67
2023/08/23 02:09:59;;;;;;;0.63;0.20;;;13.50;99.90;;;;;;5108319;27;20070;-67
2023/08/23 02:12:25;;;;;;;0.77;0.77;;;13.50;99.90;;;;;;5106163;27;20039;-67
2023/08/23 02:14:50;;;;;;;0.08;0.05;;;13.60;99.90;;;;;;5106268;27;20134;-67
2023/08/23 02:17:16;;;;;;;0.45;0.22;;;13.60;99.90;;;;;;5097887;27;20035;-67
2023/08/23 02:19:41;;;;;;;0.20;0.10;;;13.50;99.90;;;;;;5104631;27;20068;-68
2023/08/23 02:22:07;;;;;;;0.35;0.35;;;13.50;99.90;;;;;;5130514;27;20452;-67
2023/08/23 02:24:33;;;;;;;0.25;0.25;;;13.50;99.90;;;;;;5103003;27;20062;-67
2023/08/23 02:26:58;;;;;;;0.00;0.00;;;13.50;99.90;;;;;;5100533;27;20937;-67
2023/08/23 02:29:24;;;;;;;0.30;0.30;;;13.50;99.90;;;;;;5129226;27;20554;-68
2023/08/23 02:31:49;;;;;;;0.85;0.20;;;13.50;99.90;;;;;;5100893;27;20047;-68
2023/08/23 02:34:15;;;;;;;0.30;0.30;;;13.60;99.90;;;;;;5098223;27;20119;-68
2023/08/23 02:36:40;;;;;;;0.52;0.52;;;13.60;99.90;;;;;;5101748;27;20437;-67
2023/08/23 02:39:06;;;;;;;0.10;0.10;;;13.60;99.90;;;;;;5106670;27;20043;-67
2023/08/23 02:41:32;;;;;;;0.22;0.13;;;13.60;99.90;;;;;;5117798;27;20031;-67
2023/08/23 02:43:57;;;;;;;0.00;0.00;;;13.60;99.90;;;;;;5103829;27;20035;-68
2023/08/23 02:46:23;;;;;;;0.75;0.68;;;13.70;99.90;;;;;;5101640;27;20504;-68
2023/08/23 02:48:49;;;;;;;0.82;0.70;;;13.60;99.90;;;;;;5098931;27;20076;-68
2023/08/23 02:51:14;;;;;;;0.85;0.82;;;13.60;99.90;;;;;;5100721;27;20386;-68
2023/08/23 02:53:40;;;;;;;0.95;0.50;;;13.60;99.90;;;;;;5101340;27;20042;-68
2023/08/23 02:56:05;;;;;;;2.45;0.57;;;13.50;99.90;;;;;;5098649;27;20042;-67
2023/08/23 02:58:31;;;;;;;0.20;0.20;;;13.50;99.90;;;;;;5105225;27;20126;-67
2023/08/23 03:00:57;;;;;;;0.55;0.35;;;13.50;99.90;;;;;;5132357;27;20078;-68
2023/08/23 03:03:22;;;;;;;0.00;0.00;;;13.50;99.90;;;;;;5097088;27;20494;-67
2023/08/23 03:05:57;;;;;;;0.85;0.43;;;13.50;99.90;;;;;;5099259;27;20073;-67
2023/08/23 03:08:24;;;;;;;0.10;0.10;;;13.40;99.90;;;;;;5099616;27;20144;-67
2023/08/23 03:10:49;;;;;;;0.10;0.10;;;13.40;99.90;;;;;;5117028;27;20031;-67
2023/08/23 03:13:15;;;;;;;0.95;0.63;;;13.40;99.90;;;;;;5114192;27;20046;-67
2023/08/23 03:15:41;;;;;;;0.05;0.05;;;13.40;99.90;;;;;;5095965;27;20038;-67
2023/08/23 03:18:07;;;;;;;0.70;0.32;;;13.40;99.90;;;;;;5101576;27;20501;-67
2023/08/23 03:20:32;;;;;;;1.10;0.50;;;13.40;99.90;;;;;;5096224;27;20059;-67
2023/08/23 03:22:58;;;;;;;0.10;0.10;;;13.40;99.90;;;;;;5099198;27;20715;-67
2023/08/23 03:25:24;;;;;;;0.22;0.20;;;13.40;99.90;;;;;;5099448;27;20031;-67
2023/08/23 03:27:52;;;;;;;0.20;0.20;;;13.40;99.90;;;;;;5087576;27;20599;-67
2023/08/23 03:30:21;;;;;;;0.20;0.20;;;13.40;99.90;;;;;;5098698;27;20053;-67
2023/08/23 03:32:47;;;;;;;0.00;0.00;;;13.40;99.90;;;;;;5100289;27;20039;-67
2023/08/23 03:35:13;;;;;;;0.10;0.10;;;13.40;99.90;;;;;;5104868;27;20542;-68
2023/08/23 03:37:39;;;;;;;0.20;0.20;;;13.40;99.90;;;;;;5098252;27;20063;-67
2023/08/23 03:40:05;;;;;;;0.00;0.00;;;13.40;99.90;;;;;;5131362;27;20043;-67
2023/08/23 03:42:31;;;;;;;0.10;0.10;;;13.40;99.90;;;;;;5101050;27;20039;-67
2023/08/23 03:44:56;;;;;;;0.80;0.20;;;13.40;99.90;;;;;;5099434;27;20043;-67
2023/08/23 03:47:22;;;;;;;0.00;0.00;;;13.40;99.90;;;;;;5132720;27;20039;-67
2023/08/23 03:49:48;;;;;;;0.20;0.20;;;13.40;99.90;;;;;;5102763;27;20053;-67
2023/08/23 03:52:14;;;;;;;0.60;0.10;;;13.40;99.90;;;;;;5096111;27;20435;-67
2023/08/23 03:54:40;;;;;;;0.10;0.10;;;13.40;99.90;;;;;;5102467;27;20126;-67
2023/08/23 03:57:06;;;;;;;0.30;0.30;;;13.40;99.90;;;;;;5098372;27;20092;-67
2023/08/23 03:59:31;;;;;;;0.38;0.22;;;13.30;99.90;;;;;;5103549;27;20039;-68
2023/08/23 04:01:57;;;;;;;0.00;0.00;;;13.30;99.90;;;;;;5097210;27;20142;-67
2023/08/23 04:04:22;;;;;;;0.30;0.17;;;13.40;99.90;;;;;;5130287;27;20437;-67
2023/08/23 04:06:48;;;;;;;0.10;0.10;;;13.40;99.90;;;;;;5091435;28;20485;-67
2023/08/23 04:09:14;;;;;;;0.10;0.10;;;13.40;99.90;;;;;;5096864;27;20043;-67
2023/08/23 04:11:40;;;;;;;0.00;0.00;;;13.40;99.90;;;;;;5096835;27;20039;-67
2023/08/23 04:14:06;;;;;;;0.17;0.17;;;13.40;99.90;;;;;;5091280;27;20107;-67
2023/08/23 04:16:32;;;;;;;0.10;0.10;;;13.40;99.90;;;;;;5093108;27;20104;-67
2023/08/23 04:18:57;;;;;;;0.43;0.13;;;13.40;99.90;;;;;;5111899;27;20044;-67
2023/08/23 04:21:24;;;;;;;0.10;0.10;;;13.40;99.90;;;;;;5094590;27;20534;-67
2023/08/23 04:23:50;;;;;;;0.45;0.30;;;13.50;99.90;;;;;;5098373;27;20114;-67
2023/08/23 04:26:16;;;;;;;0.15;0.10;;;13.40;99.90;;;;;;5093671;27;20529;-67
2023/08/23 04:28:41;;;;;;;0.28;0.28;;;13.40;99.90;;;;;;5095478;27;20054;-67
2023/08/23 04:31:07;;;;;;;0.15;0.15;;;13.50;99.90;;;;;;5112771;27;20039;-67
2023/08/23 04:33:34;;;;;;;1.08;0.70;;;13.40;99.90;;;;;;5092855;27;20050;-67
2023/08/23 04:36:01;;;;;;;0.05;0.05;;;13.50;99.90;;;;;;5095269;27;20043;-67
2023/08/23 04:38:27;;;;;;;0.57;0.45;;;13.40;99.90;;;;;;5092555;28;20075;-67
2023/08/23 04:41:03;;;;;;;0.20;0.20;;;13.50;99.90;;;;;;5117597;27;20106;-66
2023/08/23 04:43:29;;;;;;;0.10;0.10;;;13.40;99.90;;;;;;5099618;28;20491;-67
2023/08/23 04:45:55;;;;;;;2.05;0.10;;;13.40;99.90;;;;;;5096488;28;20146;-67
2023/08/23 04:48:23;;;;;;;0.10;0.10;;;13.50;99.90;;;;;;5127941;27;20058;-67
2023/08/23 04:50:56;;;;;;;0.10;0.10;;;13.50;99.90;;;;;;5097193;28;20084;-67
2023/08/23 04:53:22;;;;;;;0.38;0.38;;;13.50;99.90;;;;;;5113247;27;20039;-67
2023/08/23 04:55:48;;;;;;;0.13;0.13;;;13.60;99.90;;;;;;5102057;27;20475;-67
2023/08/23 04:58:14;;;;;;;0.10;0.10;;;13.60;99.90;;;;;;5096966;27;20100;-67
2023/08/23 05:00:39;;;;;;;0.20;0.20;;;13.70;99.90;;;;;;5111371;27;20584;-67
2023/08/23 05:03:06;;;;;;;8.48;0.35;;;13.70;99.90;;;;;;5114930;27;20081;-67
2023/08/23 05:05:31;;;;;;;0.10;0.10;;;13.80;99.90;;;;;;5099519;27;20589;-67
2023/08/23 05:07:57;;;;;;;0.13;0.13;;;13.80;99.90;;;;;;5098946;27;20122;-67
2023/08/23 05:10:23;;;;;;;0.10;0.10;;;13.90;99.90;;;;;;5114986;27;20031;-66
2023/08/23 05:12:48;;;;;;;0.10;0.10;;;13.90;99.90;;;;;;5133384;27;20036;-67
2023/08/23 05:15:14;;;;;;;0.10;0.10;;;14.00;99.90;;;;;;5099607;27;20084;-66
2023/08/23 05:17:40;;;;;;;0.20;0.20;;;14.00;99.90;;;;;;5099144;27;20438;-67
2023/08/23 05:20:06;;;;;;;0.22;0.22;;;14.10;99.90;;;;;;5094246;27;20047;-66
2023/08/23 05:22:31;;;;;;;0.20;0.20;;;14.10;99.90;;;;;;5096969;27;20482;-67
2023/08/23 05:24:58;;;;;;;0.28;0.28;;;14.20;99.90;;;;;;5091739;27;20320;-66
2023/08/23 05:27:23;;;;;;;0.47;0.38;;;14.20;99.90;;;;;;5102768;27;20470;-66
2023/08/23 05:29:50;;;;;;;0.00;0.00;;;14.20;99.90;;;;;;5099711;27;20042;-66
2023/08/23 05:32:16;;;;;;;0.20;0.20;;;14.20;99.90;;;;;;5116863;27;20066;-67
2023/08/23 05:34:41;;;;;;;0.50;0.50;;;14.20;99.90;;;;;;5102786;27;20112;-66
2023/08/23 05:37:07;;;;;;;2.60;0.55;;;14.20;99.90;;;;;;5107125;27;20114;-67
2023/08/23 05:39:33;;;;;;;0.00;0.00;;;14.20;99.90;;;;;;5097681;27;20043;-67
2023/08/23 05:41:58;;;;;;;0.40;0.40;;;14.20;99.90;;;;;;5101091;27;20036;-67
2023/08/23 05:44:24;;;;;;;0.60;0.38;;;14.20;99.90;;;;;;5120650;27;20057;-67
2023/08/23 05:46:49;;;;;;;0.00;0.00;;;14.30;99.90;;;;;;5101022;27;20499;-67
2023/08/23 05:49:16;;;;;;;0.38;0.38;;;14.30;99.90;;;;;;5119658;27;20116;-67
2023/08/23 05:51:42;;;;;;;0.20;0.20;;;14.40;99.90;;;;;;5099613;27;20051;-67
2023/08/23 05:54:07;;;;;;;0.10;0.10;;;14.40;99.90;;;;;;5119079;27;20376;-67
2023/08/23 05:56:34;;;;;;;0.50;0.20;;;14.50;99.90;;;;;;5097337;27;20040;-67
2023/08/23 05:58:59;;;;;;;0.00;0.00;;;14.50;99.90;;;;;;5103999;27;20035;-67
2023/08/23 06:01:26;;;;;;;1.98;1.35;;;14.60;99.90;;;;;;5107699;27;20046;-67
2023/08/23 06:03:51;;;;;;;0.60;0.60;;;14.60;99.90;;;;;;5101777;28;20088;-67
2023/08/23 06:06:17;;;;;;;0.22;0.22;;;14.80;99.90;;;;;;5096721;27;20438;-67
2023/08/23 06:08:42;;;;;;;2.40;0.40;;;14.90;99.90;;;;;;5108087;27;20057;-68
2023/08/23 06:11:08;;;;;;;0.20;0.20;;;15.00;99.90;;;;;;5117227;27;20040;-67
2023/08/23 06:13:34;;;;;;;0.52;0.40;;;15.20;99.90;;;;;;5105670;27;20114;-68
2023/08/23 06:15:59;;;;;;;0.65;0.30;;;15.30;99.90;;;;;;5132321;27;20035;-68
2023/08/23 06:18:25;;;;;;;0.10;0.10;;;15.40;99.90;;;;;;5123010;27;20075;-67
2023/08/23 06:20:50;;;;;;;0.60;0.40;;;15.50;99.90;;;;;;5113965;27;20046;-68
2023/08/23 06:23:16;;;;;;;0.65;0.65;;;15.60;99.90;;;;;;5108561;27;20031;-67
2023/08/23 06:25:42;;;;;;;0.10;0.10;;;15.70;99.90;;;;;;5109136;27;20109;-67
2023/08/23 06:28:08;;;;;;;0.30;0.30;;;15.80;99.90;;;;;;5093356;27;20469;-67
2023/08/23 06:30:37;;;;;;;0.40;0.40;;;15.90;99.90;;;;;;5099427;27;20046;-67
2023/08/23 06:33:05;;;;;;;0.10;0.10;;;16.00;99.90;;;;;;5100136;27;20118;-67
2023/08/23 06:35:31;;;;;;;0.20;0.20;;;16.10;99.90;;;;;;5104346;27;20054;-67
2023/08/23 06:37:57;;;;;;;0.35;0.35;;;16.20;99.90;;;;;;5097878;27;20031;-67
2023/08/23 06:40:22;;;;;;;0.22;0.22;;;16.30;99.90;;;;;;5118907;27;20478;-67
2023/08/23 06:42:48;;;;;;;1.65;0.20;;;16.50;99.90;;;;;;5104138;27;20031;-67
2023/08/23 06:45:14;;;;;;;0.57;0.57;;;16.60;99.90;;;;;;5104552;27;20035;-66
2023/08/23 06:47:39;;;;;;;0.43;0.22;;;16.70;99.90;;;;;;5125649;27;20050;-66
2023/08/23 06:50:06;;;;;;;0.25;0.20;;;16.80;99.90;;;;;;5101471;27;20043;-66
2023/08/23 06:52:32;;;;;;;0.30;0.30;;;16.90;99.90;;;;;;5103842;28;20366;-66
2023/08/23 06:54:58;;;;;;;0.25;0.20;;;17.00;99.90;;;;;;5102347;28;20126;-66
2023/08/23 06:57:28;;;;;;;0.05;0.05;;;17.20;99.90;;;;;;5095602;27;20103;-66
2023/08/23 06:59:56;;;;;;;0.45;0.43;;;17.20;99.90;;;;;;5103494;28;20554;-66
2023/08/23 07:02:22;;;;;;;0.28;0.28;;;17.40;99.90;;;;;;5097509;27;20485;-66
2023/08/23 07:04:50;;;;;;;0.32;0.32;;;17.40;99.90;;;;;;5098807;28;20502;-66
2023/08/23 07:07:16;;;;;;;0.52;0.47;;;17.50;99.90;;;;;;5099057;27;20043;-67
2023/08/23 07:09:41;;;;;;;0.50;0.43;;;17.60;99.90;;;;;;5107156;27;20050;-66
2023/08/23 07:12:07;;;;;;;1.08;0.47;;;17.70;99.90;;;;;;5105439;27;20538;-67
2023/08/23 07:14:33;;;;;;;1.30;0.93;;;17.80;99.90;;;;;;5105224;27;20043;-67
2023/08/23 07:16:58;;;;;;;0.75;0.75;;;17.70;99.90;;;;;;5099083;27;20130;-66
2023/08/23 07:19:24;;;;;;;4.82;1.00;;;17.70;99.90;;;;;;5100705;27;20042;-67
2023/08/23 07:21:49;;;;;;;0.30;0.28;;;17.80;99.90;;;;;;5106765;27;20126;-67
2023/08/23 07:24:15;;;;;;;0.90;0.17;;;17.80;99.90;;;;;;5093251;27;20092;-65
2023/08/23 07:26:40;;;;;;;0.65;0.30;;;17.90;99.90;;;;;;5115634;27;20128;-66
2023/08/23 07:29:06;;;;;;;0.40;0.40;;;18.00;99.90;;;;;;5132062;27;20393;-67
2023/08/23 07:31:32;;;;;;;0.30;0.30;;;18.10;99.90;;;;;;5100956;27;20035;-66
2023/08/23 07:33:58;;;;;;;2.63;1.48;;;18.20;99.90;;;;;;5124682;27;20054;-67
2023/08/23 07:36:24;;;;;;;0.13;0.13;;;18.30;99.90;;;;;;5102060;27;20035;-68
2023/08/23 07:38:49;;;;;;;1.00;0.85;;;18.40;99.90;;;;;;5110960;27;20442;-68
2023/08/23 07:41:15;;;;;;;1.95;1.17;;;18.50;99.90;;;;;;5108506;27;20035;-67
2023/08/23 07:43:41;;;;;;;1.98;0.95;;;18.50;99.90;;;;;;5099686;27;20035;-68
2023/08/23 07:46:07;;;;;;;0.85;0.55;;;18.70;99.90;;;;;;5102660;27;20156;-68
2023/08/23 07:48:33;;;;;;;0.70;0.22;;;18.70;99.90;;;;;;5108858;27;20092;-68
2023/08/23 07:51:01;;;;;;;1.02;0.70;;;18.80;99.90;;;;;;5106415;27;20049;-69
2023/08/23 07:53:28;;;;;;;0.63;0.50;;;18.80;99.90;;;;;;5108927;27;20088;-68
2023/08/23 07:55:54;;;;;;;0.20;0.20;;;19.00;99.90;;;;;;5120049;27;20035;-69
2023/08/23 07:58:19;;;;;;;0.75;0.70;;;19.10;99.90;;;;;;5098047;28;20044;-68
2023/08/23 08:00:45;;;;;;;1.13;1.00;;;19.10;99.90;;;;;;5097148;27;20049;-69
2023/08/23 08:03:11;;;;;;;1.10;0.47;;;19.20;99.90;;;;;;5099829;27;20075;-69
2023/08/23 08:05:36;;;;;;;0.82;0.25;;;19.20;99.90;;;;;;5098316;27;20504;-68
2023/08/23 08:08:03;;;;;;;2.85;1.40;;;19.30;99.90;;;;;;5095141;28;20367;-68
2023/08/23 08:10:31;;;;;;;0.50;0.45;;;19.40;99.90;;;;;;5097950;27;20677;-70
2023/08/23 08:12:58;;;;;;;0.98;0.98;;;19.50;99.90;;;;;;5097375;27;20031;-69
2023/08/23 08:15:24;;;;;;;2.92;1.45;;;19.60;99.90;;;;;;5099916;27;20042;-68
2023/08/23 08:17:51;;;;;;;0.40;0.13;;;19.60;99.90;;;;;;5103062;27;20071;-68
2023/08/23 08:20:18;;;;;;;1.25;1.15;;;19.70;99.90;;;;;;5107575;27;20108;-68
2023/08/23 08:22:44;;;;;;;1.88;0.68;;;19.80;99.90;;;;;;5085896;28;20039;-69
2023/08/23 08:25:10;;;;;;;0.90;0.75;;;19.80;99.90;;;;;;5104251;27;20032;-68
2023/08/23 08:27:35;;;;;;;0.43;0.30;;;19.90;99.90;;;;;;5125361;27;20778;-68
2023/08/23 08:30:02;;;;;;;0.63;0.63;;;20.00;99.90;;;;;;5112978;27;20068;-68
2023/08/23 08:32:27;;;;;;;1.95;1.33;;;20.10;99.90;;;;;;5108542;27;20027;-68
2023/08/23 08:34:55;;;;;;;2.00;0.70;;;20.10;99.90;;;;;;5106887;27;20088;-68
2023/08/23 08:37:22;;;;;;;1.48;0.77;;;20.20;99.90;;;;;;5101616;27;20040;-68
2023/08/23 08:39:49;;;;;;;2.78;2.28;;;20.20;99.90;;;;;;5115370;27;20039;-66
2023/08/23 08:42:15;;;;;;;0.55;0.50;;;20.20;99.90;;;;;;5113521;28;20066;-66
2023/08/23 08:44:42;;;;;;;1.25;0.80;;;20.30;99.90;;;;;;5108643;28;20532;-69
2023/08/23 08:47:07;;;;;;;1.27;0.80;;;20.40;99.90;;;;;;5103504;28;20125;-68
2023/08/23 08:49:33;;;;;;;1.63;1.08;;;20.40;99.90;;;;;;5109421;28;20318;-69
2023/08/23 08:52:09;;;;;;;1.83;0.50;;;20.50;99.90;;;;;;5115324;28;20035;-68
2023/08/23 08:54:34;;;;;;;0.60;0.60;;;20.50;99.90;;;;;;5110676;28;20047;-68
2023/08/23 08:57:01;;;;;;;0.95;0.95;;;20.60;99.90;;;;;;5099804;28;20046;-69
2023/08/23 08:59:27;;;;;;;0.63;0.52;;;20.60;99.90;;;;;;5095052;28;20043;-67
2023/08/23 09:01:57;;;;;;;2.92;1.52;;;20.70;99.90;;;;;;5109184;28;20028;-68
2023/08/23 09:04:23;;;;;;;4.13;1.40;;;20.80;99.90;;;;;;5098780;28;20031;-68
2023/08/23 09:06:49;;;;;;;0.35;0.22;;;20.90;99.90;;;;;;5103680;28;20676;-68
2023/08/23 09:09:15;;;;;;;1.05;0.82;;;20.90;99.90;;;;;;5106763;28;20409;-66
2023/08/23 09:11:41;;;;;;;0.85;0.50;;;21.00;99.90;;;;;;5115446;28;20057;-66
2023/08/23 09:14:14;;;;;;;0.52;0.50;;;21.10;99.90;;;;;;5106733;28;20452;-68
2023/08/23 09:16:41;;;;;;;2.55;1.48;;;21.10;99.90;;;;;;5109868;28;20075;-67
2023/08/23 09:19:13;;;;;;;2.38;1.55;;;21.20;99.90;;;;;;5135705;27;20088;-68
2023/08/23 09:21:47;;;;;;;0.63;0.63;;;21.30;99.90;;;;;;5093227;28;20640;-67
2023/08/23 09:24:13;;;;;;;1.30;0.50;;;21.40;99.90;;;;;;5116129;27;20058;-68
2023/08/23 09:26:39;;;;;;;0.50;0.35;;;21.40;99.90;;;;;;5095554;28;20035;-68
2023/08/23 09:29:05;;;;;;;0.65;0.55;;;21.40;99.90;;;;;;5112612;28;20439;-67
2023/08/23 09:31:31;;;;;;;2.33;0.47;;;21.50;99.90;;;;;;5113385;28;20239;-67
2023/08/23 09:33:58;;;;;;;0.98;0.68;;;21.60;99.90;;;;;;5105339;28;20035;-67
2023/08/23 09:36:40;;;;;;;0.77;0.47;;;21.70;99.90;;;;;;5090757;28;20091;-67
2023/08/23 09:39:10;;;;;;;0.47;0.47;;;21.70;99.90;;;;;;5124763;27;20083;-67
2023/08/23 09:41:43;;;;;;;0.93;0.55;;;21.80;99.90;;;;;;5121617;27;20047;-67
2023/08/23 09:44:09;;;;;;;0.63;0.63;;;21.80;99.90;;;;;;5112797;27;20050;-67
2023/08/23 09:46:39;;;;;;;1.35;1.25;;;21.90;99.90;;;;;;5109106;27;20469;-66
2023/08/23 09:49:08;;;;;;;0.88;0.80;;;22.00;99.90;;;;;;5110724;27;20039;-67
2023/08/23 09:51:37;;;;;;;0.57;0.52;;;22.00;99.90;;;;;;5126147;27;20746;-67
2023/08/23 09:54:31;;;;;;;1.40;1.15;;;22.20;99.90;;;;;;5108432;27;20039;-67
2023/08/23 09:57:26;;;;;;;1.45;1.35;;;22.20;99.90;;;;;;5087096;27;20038;-66
2023/08/23 09:59:52;;;;;;;0.80;0.60;;;22.20;99.90;;;;;;5096051;28;20051;-67
2023/08/23 10:02:24;;;;;;;2.25;0.93;;;22.20;99.90;;;;;;5096138;27;20035;-67
2023/08/23 10:04:50;;;;;;;1.98;1.58;;;22.20;99.90;;;;;;5107851;27;20042;-66
2023/08/23 10:07:16;;;;;;;1.80;0.63;;;22.30;99.90;;;;;;5119166;27;20039;-67
2023/08/23 10:09:43;;;;;;;0.57;0.57;;;22.40;99.90;;;;;;5102579;27;20498;-67
2023/08/23 10:12:11;;;;;;;2.20;0.60;;;22.40;99.90;;;;;;5096245;27;20039;-67
2023/08/23 10:14:40;;;;;;;2.25;1.88;;;22.60;99.90;;;;;;5112141;27;20043;-67
2023/08/23 10:17:08;;;;;;;0.30;0.30;;;22.60;99.90;;;;;;5102936;28;20274;-66
2023/08/23 10:19:33;;;;;;;1.20;1.10;;;22.70;99.90;;;;;;5111140;27;20054;-66
2023/08/23 10:22:00;;;;;;;0.30;0.30;;;22.70;99.90;;;;;;5114631;27;20035;-67
2023/08/23 10:24:30;;;;;;;1.13;1.02;;;22.80;99.90;;;;;;5111196;27;20027;-66
2023/08/23 10:26:56;;;;;;;0.38;0.32;;;22.90;99.90;;;;;;5107698;27;20076;-66
2023/08/23 10:29:28;;;;;;;0.82;0.82;;;23.00;99.90;;;;;;5112476;27;20034;-67
2023/08/23 10:31:55;;;;;;;1.38;1.10;;;23.10;99.90;;;;;;5105909;27;20611;-66
2023/08/23 10:34:26;;;;;;;0.68;0.68;;;23.20;99.90;;;;;;5101243;28;20432;-66
2023/08/23 10:36:56;;;;;;;1.88;0.85;;;23.30;99.90;;;;;;5096569;27;20039;-67
2023/08/23 10:39:23;;;;;;;2.35;1.35;;;23.40;99.90;;;;;;5088757;27;20074;-66
2023/08/23 10:41:56;;;;;;;1.00;0.98;;;23.50;99.90;;;;;;5107693;27;20043;-67
2023/08/23 10:44:22;;;;;;;0.35;0.35;;;23.60;99.90;;;;;;5097182;28;20430;-66
2023/08/23 10:46:54;;;;;;;1.00;1.00;;;23.70;99.90;;;;;;5140394;27;20073;-66
2023/08/23 10:49:20;;;;;;;1.45;1.30;;;23.80;99.90;;;;;;5110180;27;20047;-68
2023/08/23 10:51:47;;;;;;;0.88;0.70;;;24.00;99.90;;;;;;5112141;27;20047;-67
2023/08/23 10:54:13;;;;;;;1.10;0.70;;;24.10;99.90;;;;;;5095194;27;20040;-67
2023/08/23 10:56:40;;;;;;;1.80;1.67;;;24.10;99.90;;;;;;5107456;28;20362;-67
2023/08/23 10:59:08;;;;;;;0.65;0.65;;;24.20;99.90;;;;;;5115274;27;20027;-67
2023/08/23 11:01:35;;;;;;;0.20;0.20;;;24.20;99.90;;;;;;5119381;27;20050;-68
2023/08/23 11:04:05;;;;;;;2.38;1.25;;;24.20;99.90;;;;;;5099735;27;20492;-67
2023/08/23 11:06:32;;;;;;;1.20;0.50;;;24.20;99.90;;;;;;5112394;27;20149;-67
2023/08/23 11:08:58;;;;;;;1.52;0.70;;;24.10;99.90;;;;;;5113134;27;20146;-67
2023/08/23 11:11:30;;;;;;;0.60;0.60;;;24.00;99.90;;;;;;5121304;27;20130;-66
2023/08/23 11:13:57;;;;;;;0.60;0.60;;;23.80;99.90;;;;;;5107779;27;20553;-68
2023/08/23 11:16:24;;;;;;;1.33;1.20;;;23.70;99.90;;;;;;5118362;27;20059;-67
2023/08/23 11:18:52;;;;;;;2.58;1.15;;;23.50;99.90;;;;;;5098470;27;20036;-66
2023/08/23 11:21:18;;;;;;;1.05;0.95;;;23.20;99.90;;;;;;5118583;27;20031;-66
2023/08/23 11:23:44;;;;;;;4.78;0.30;;;23.10;99.90;;;;;;5098653;27;20066;-67
2023/08/23 11:26:09;;;;;;;3.17;1.05;;;23.20;99.90;;;;;;5100760;27;20046;-67
2023/08/23 11:28:35;;;;;;;1.55;0.80;;;23.10;99.90;;;;;;5117429;27;20035;-66
2023/08/23 11:31:06;;;;;;;3.00;1.73;;;23.10;99.90;;;;;;5121195;27;20385;-69
2023/08/23 11:33:33;;;;;;;3.33;1.17;;;23.30;99.90;;;;;;5105513;27;20494;-67
2023/08/23 11:35:59;;;;;;;7.82;0.57;;;23.40;99.90;;;;;;5113067;27;20570;-68
2023/08/23 11:38:28;;;;;;;0.73;0.57;;;23.50;99.90;;;;;;5110973;27;20057;-68
2023/08/23 11:40:54;;;;;;;1.52;1.08;;;23.60;99.90;;;;;;5116754;27;20027;-69
2023/08/23 11:43:19;;;;;;;0.75;0.65;;;23.50;99.90;;;;;;5108243;27;20034;-65
2023/08/23 11:45:48;;;;;;;3.08;1.52;;;23.40;99.90;;;;;;5137510;27;20035;-67
2023/08/23 11:48:14;;;;;;;1.05;0.95;;;23.50;99.90;;;;;;5099616;27;20031;-69
2023/08/23 11:50:40;;;;;;;1.77;1.63;;;23.50;99.90;;;;;;5097681;27;20039;-67
2023/08/23 11:53:06;;;;;;;1.05;0.85;;;23.50;99.90;;;;;;5096851;27;20394;-67
2023/08/23 11:55:34;;;;;;;1.45;0.85;;;23.40;99.90;;;;;;5103265;27;20039;-68
2023/08/23 11:58:02;;;;;;;1.08;0.65;;;23.40;99.90;;;;;;5099806;27;20035;-68
2023/08/23 12:00:27;;;;;;;0.77;0.77;;;23.70;99.90;;;;;;5104966;27;20469;-67
2023/08/23 12:02:53;;;;;;;0.65;0.60;;;23.80;99.90;;;;;;5106395;27;20039;-71
2023/08/23 12:05:19;;;;;;;0.93;0.90;;;24.00;99.90;;;;;;5093874;27;20461;-69
2023/08/23 12:07:48;;;;;;;0.47;0.47;;;24.00;99.90;;;;;;5110290;27;20050;-66
2023/08/23 12:10:14;;;;;;;1.13;0.95;;;24.10;99.90;;;;;;5115544;27;20096;-66
2023/08/23 12:12:40;;;;;;;0.77;0.75;;;23.90;99.90;;;;;;5104647;27;20051;-67
2023/08/23 12:15:06;;;;;;;0.40;0.40;;;23.60;99.90;;;;;;5139892;27;20070;-69
2023/08/23 12:17:32;;;;;;;1.95;1.02;;;23.50;99.90;;;;;;5104162;27;20035;-66
2023/08/23 12:19:59;;;;;;;2.00;1.45;;;23.30;99.90;;;;;;5123905;27;20078;-66
2023/08/23 12:22:25;;;;;;;10.63;1.65;;;23.20;99.90;;;;;;5097245;28;20059;-68
2023/08/23 12:24:51;;;;;;;2.15;1.15;;;23.10;99.90;;;;;;5103391;27;20161;-66
2023/08/23 12:27:17;;;;;;;0.93;0.57;;;23.10;99.90;;;;;;5103028;27;20041;-67
2023/08/23 12:29:43;;;;;;;1.88;0.88;;;23.10;99.90;;;;;;5104407;27;20038;-70
2023/08/23 12:32:09;;;;;;;1.75;0.93;;;23.30;99.90;;;;;;5101367;27;20312;-67
2023/08/23 12:34:35;;;;;;;1.48;0.98;;;23.50;99.90;;;;;;5116833;27;20035;-68
2023/08/23 12:37:00;;;;;;;1.85;1.48;;;23.70;99.90;;;;;;5101352;27;20883;-68
2023/08/23 12:39:27;;;;;;;0.32;0.32;;;23.80;99.90;;;;;;5125437;27;20047;-67
2023/08/23 12:41:53;;;;;;;0.43;0.43;;;24.00;99.90;;;;;;5102567;28;20073;-66
2023/08/23 12:44:19;;;;;;;1.02;0.75;;;24.10;99.90;;;;;;5117305;28;20127;-68
2023/08/23 12:46:44;;;;;;;8.43;1.13;;;24.20;99.90;;;;;;5096228;27;20035;-66